Time;durP1;ratioP1;P1;durP2;ratioP2;P2;SDS_P1;SDS_P2;PMS_P1;PMS_P2;Temp;Humidity;BMP_temperature;BMP_pressure;BME280_temperature;BME280_humidity;BME280_pressure;Samples;Min_cycle;Max_cycle;Signal;HPM_P1;HPM_P2
2023/10/23 00:02:22;;;;;;;0.50;0.40;;;11.70;99.90;;;;;;5044046;28;20532;-81
2023/10/23 00:04:50;;;;;;;0.50;0.40;;;11.70;99.90;;;;;;5045970;28;20438;-80
2023/10/23 00:07:17;;;;;;;0.60;0.50;;;11.70;99.90;;;;;;5047482;28;20446;-80
2023/10/23 00:09:44;;;;;;;0.50;0.40;;;11.70;99.90;;;;;;5045299;28;20471;-81
2023/10/23 00:12:10;;;;;;;0.50;0.40;;;11.60;99.90;;;;;;5044586;28;20945;-80
2023/10/23 00:14:37;;;;;;;0.98;0.75;;;11.60;99.90;;;;;;5044606;28;20215;-81
2023/10/23 00:17:04;;;;;;;0.57;0.57;;;11.60;99.90;;;;;;5047107;28;20199;-81
2023/10/23 00:19:31;;;;;;;0.50;0.40;;;11.50;99.90;;;;;;5047040;28;20506;-80
2023/10/23 00:21:59;;;;;;;0.50;0.50;;;11.50;99.90;;;;;;5036133;28;20199;-82
2023/10/23 00:24:26;;;;;;;0.50;0.40;;;11.50;99.90;;;;;;5044095;28;20453;-81
2023/10/23 00:26:52;;;;;;;0.50;0.40;;;11.40;99.90;;;;;;5046988;28;20452;-81
2023/10/23 00:29:19;;;;;;;0.50;0.40;;;11.40;99.90;;;;;;5051624;28;20475;-81
2023/10/23 00:31:46;;;;;;;0.50;0.30;;;11.40;99.90;;;;;;5048956;28;20195;-80
2023/10/23 00:34:13;;;;;;;0.50;0.40;;;11.40;99.90;;;;;;5047340;28;20446;-81
2023/10/23 00:36:39;;;;;;;0.50;0.40;;;11.40;99.90;;;;;;5047998;28;20206;-80
2023/10/23 00:39:08;;;;;;;0.50;0.50;;;11.30;99.90;;;;;;5050409;28;20467;-80
2023/10/23 00:41:35;;;;;;;0.50;0.40;;;11.30;99.90;;;;;;5050412;28;20289;-80
2023/10/23 00:44:02;;;;;;;0.50;0.40;;;11.30;99.90;;;;;;5047048;28;20271;-81
2023/10/23 00:46:30;;;;;;;0.50;0.40;;;11.20;99.90;;;;;;5047386;28;20200;-80
2023/10/23 00:48:58;;;;;;;0.50;0.40;;;11.20;99.90;;;;;;5046891;28;20466;-81
2023/10/23 00:51:26;;;;;;;0.50;0.40;;;11.20;99.90;;;;;;5046684;28;20203;-80
2023/10/23 00:53:53;;;;;;;0.60;0.60;;;11.10;99.90;;;;;;5049425;28;20287;-80
2023/10/23 00:56:21;;;;;;;0.50;0.40;;;11.10;99.90;;;;;;5050443;28;20682;-81
2023/10/23 00:58:48;;;;;;;0.50;0.40;;;11.10;99.90;;;;;;5048545;28;20310;-82
2023/10/23 01:01:15;;;;;;;0.50;0.40;;;11.10;99.90;;;;;;5047199;28;20445;-81
2023/10/23 01:03:44;;;;;;;0.50;0.40;;;11.00;99.90;;;;;;5047770;28;20942;-81
2023/10/23 01:06:12;;;;;;;0.50;0.40;;;11.00;99.90;;;;;;5050154;28;20765;-81
2023/10/23 01:08:39;;;;;;;0.50;0.37;;;11.00;99.90;;;;;;5049096;28;20469;-81
2023/10/23 01:11:06;;;;;;;0.50;0.40;;;10.90;99.90;;;;;;5046905;28;20930;-79
2023/10/23 01:13:34;;;;;;;0.50;0.40;;;10.90;99.90;;;;;;5046338;28;20677;-81
2023/10/23 01:16:01;;;;;;;0.50;0.40;;;11.00;99.90;;;;;;5049112;28;20218;-78
2023/10/23 01:18:28;;;;;;;0.50;0.40;;;10.90;99.90;;;;;;5050002;28;20218;-81
2023/10/23 01:20:55;;;;;;;0.50;0.40;;;10.90;99.90;;;;;;5047515;28;20206;-81
2023/10/23 01:23:25;;;;;;;0.50;0.40;;;10.90;99.90;;;;;;5046879;28;20222;-81
2023/10/23 01:25:53;;;;;;;0.50;0.40;;;10.90;99.90;;;;;;5048441;28;20250;-81
2023/10/23 01:28:20;;;;;;;0.50;0.40;;;10.80;99.90;;;;;;5050765;28;20215;-81
2023/10/23 01:30:47;;;;;;;0.50;0.40;;;10.80;99.90;;;;;;5048704;28;20218;-82
2023/10/23 01:33:14;;;;;;;0.50;0.40;;;10.80;99.90;;;;;;5046303;28;20199;-81
2023/10/23 01:35:41;;;;;;;0.50;0.40;;;10.80;99.90;;;;;;5045951;28;20212;-79
2023/10/23 01:38:07;;;;;;;0.50;0.40;;;10.80;99.90;;;;;;5048854;28;20199;-82
2023/10/23 01:40:34;;;;;;;0.50;0.40;;;10.80;99.90;;;;;;5049410;28;20195;-81
2023/10/23 01:43:03;;;;;;;0.70;0.50;;;10.70;99.90;;;;;;5045822;28;20200;-80
2023/10/23 01:45:30;;;;;;;0.50;0.40;;;10.80;99.90;;;;;;5046434;28;20563;-80
2023/10/23 01:47:56;;;;;;;0.50;0.40;;;10.70;99.90;;;;;;5047986;28;20208;-81
2023/10/23 01:50:24;;;;;;;0.50;0.40;;;10.70;99.90;;;;;;5049494;28;20198;-81
2023/10/23 01:52:51;;;;;;;1.70;1.35;;;10.70;99.90;;;;;;5047754;28;20253;-80
2023/10/23 01:55:18;;;;;;;0.50;0.40;;;10.70;99.90;;;;;;5043335;28;20222;-80
2023/10/23 01:57:45;;;;;;;0.50;0.50;;;10.70;99.90;;;;;;5048509;28;20191;-80
2023/10/23 02:00:13;;;;;;;0.85;0.70;;;10.70;99.90;;;;;;5045603;28;20216;-81
2023/10/23 02:02:40;;;;;;;0.50;0.40;;;10.70;99.90;;;;;;5045831;28;20643;-81
2023/10/23 02:05:07;;;;;;;0.50;0.40;;;10.70;99.90;;;;;;5037535;28;20204;-81
2023/10/23 02:07:34;;;;;;;0.50;0.40;;;10.70;99.90;;;;;;5045898;28;20573;-80
2023/10/23 02:10:01;;;;;;;0.50;0.40;;;10.70;99.90;;;;;;5048307;28;20407;-80
2023/10/23 02:12:28;;;;;;;0.50;0.40;;;10.60;99.90;;;;;;5049155;28;20253;-81
2023/10/23 02:14:55;;;;;;;0.50;0.40;;;10.60;99.90;;;;;;5047255;28;20291;-81
2023/10/23 02:17:25;;;;;;;0.50;0.40;;;10.50;99.90;;;;;;5045826;28;20203;-81
2023/10/23 02:19:51;;;;;;;0.50;0.40;;;10.50;99.90;;;;;;5046783;28;20220;-80
2023/10/23 02:22:19;;;;;;;0.50;0.40;;;10.50;99.90;;;;;;5049109;28;20191;-80
2023/10/23 02:24:46;;;;;;;0.50;0.40;;;10.50;99.90;;;;;;5048554;28;20276;-81
2023/10/23 02:27:13;;;;;;;0.88;0.88;;;10.50;99.90;;;;;;5045241;28;20198;-81
2023/10/23 02:29:40;;;;;;;0.50;0.40;;;10.50;99.90;;;;;;5045608;28;20242;-80
2023/10/23 02:32:07;;;;;;;0.50;0.40;;;10.50;99.90;;;;;;5047843;28;20538;-81
2023/10/23 02:34:36;;;;;;;0.50;0.40;;;10.50;99.90;;;;;;5048425;28;20813;-80
2023/10/23 02:37:03;;;;;;;0.50;0.40;;;10.50;99.90;;;;;;5039792;28;20218;-77
2023/10/23 02:39:30;;;;;;;0.50;0.40;;;10.50;99.90;;;;;;5048773;28;20222;-81
2023/10/23 02:41:57;;;;;;;0.50;0.40;;;10.40;99.90;;;;;;5045977;28;20298;-81
2023/10/23 02:44:24;;;;;;;0.50;0.40;;;10.40;99.90;;;;;;5047813;28;20200;-80
2023/10/23 02:46:51;;;;;;;0.50;0.40;;;10.50;99.90;;;;;;5047431;28;20200;-80
2023/10/23 02:49:17;;;;;;;0.50;0.40;;;10.50;99.90;;;;;;5048894;28;20219;-80
2023/10/23 02:51:47;;;;;;;0.50;0.50;;;10.50;99.90;;;;;;5048614;28;20199;-80
2023/10/23 02:54:14;;;;;;;0.50;0.45;;;10.50;99.90;;;;;;5037088;28;20210;-81
2023/10/23 02:56:40;;;;;;;0.60;0.50;;;10.40;99.90;;;;;;5045534;28;20847;-80
2023/10/23 02:59:07;;;;;;;0.50;0.40;;;10.40;99.90;;;;;;5047975;28;20601;-80
2023/10/23 03:01:34;;;;;;;0.50;0.40;;;10.40;99.90;;;;;;5049589;28;20222;-80
2023/10/23 03:04:01;;;;;;;0.50;0.40;;;10.40;99.90;;;;;;5046851;28;20199;-79
2023/10/23 03:06:27;;;;;;;0.50;0.40;;;10.30;99.90;;;;;;5050662;28;20202;-80
2023/10/23 03:08:55;;;;;;;0.50;0.40;;;10.30;99.90;;;;;;5047440;28;20234;-81
2023/10/23 03:11:22;;;;;;;0.50;0.40;;;10.30;99.90;;;;;;5045402;28;20192;-81
2023/10/23 03:13:49;;;;;;;0.50;0.40;;;10.30;99.90;;;;;;5045811;28;20210;-79
2023/10/23 03:16:16;;;;;;;1.73;1.70;;;10.30;99.90;;;;;;5048359;28;20215;-79
2023/10/23 03:18:42;;;;;;;0.50;0.40;;;10.30;99.90;;;;;;5047604;28;20214;-80
2023/10/23 03:21:09;;;;;;;3.40;3.15;;;10.30;99.90;;;;;;5043877;28;20690;-79
2023/10/23 03:23:36;;;;;;;0.50;0.40;;;10.30;99.90;;;;;;5043786;28;20255;-80
2023/10/23 03:26:04;;;;;;;0.82;0.82;;;10.30;99.90;;;;;;5045329;28;20192;-79
2023/10/23 03:28:31;;;;;;;0.50;0.40;;;10.20;99.90;;;;;;5047483;28;20301;-80
2023/10/23 03:31:01;;;;;;;0.50;0.40;;;10.20;99.90;;;;;;5066899;22;20227;-82
2023/10/23 03:33:28;;;;;;;0.50;0.40;;;10.10;99.90;;;;;;5058844;28;20199;-83
2023/10/23 03:35:55;;;;;;;0.50;0.40;;;10.10;99.90;;;;;;5058262;28;20228;-83
2023/10/23 03:38:21;;;;;;;0.50;0.40;;;10.10;99.90;;;;;;5055646;28;20199;-81
2023/10/23 03:40:58;;;;;;;0.50;0.40;;;10.10;99.90;;;;;;5045553;28;20302;-83
2023/10/23 03:43:26;;;;;;;1.70;0.70;;;10.10;99.90;;;;;;5035622;28;20207;-83
2023/10/23 03:45:54;;;;;;;0.50;0.35;;;10.10;99.90;;;;;;5042442;28;20282;-82
2023/10/23 03:48:20;;;;;;;0.50;0.40;;;10.10;99.90;;;;;;5050747;28;20202;-82
2023/10/23 03:50:47;;;;;;;0.50;0.40;;;10.00;99.90;;;;;;5042824;28;20591;-81
2023/10/23 03:53:14;;;;;;;0.50;0.40;;;10.00;99.90;;;;;;5042965;28;20287;-83
2023/10/23 03:55:41;;;;;;;0.50;0.40;;;10.00;99.90;;;;;;5043973;28;20590;-83
2023/10/23 03:58:07;;;;;;;0.50;0.40;;;10.00;99.90;;;;;;5044622;28;20200;-81
2023/10/23 04:00:36;;;;;;;0.50;0.40;;;9.90;99.90;;;;;;5048391;28;20226;-82
2023/10/23 04:03:02;;;;;;;0.50;0.40;;;9.90;99.90;;;;;;5045142;28;20199;-82
2023/10/23 04:05:30;;;;;;;0.50;0.40;;;9.90;99.90;;;;;;5051428;28;20205;-82
2023/10/23 04:07:57;;;;;;;0.50;0.40;;;9.90;99.90;;;;;;5048738;28;20203;-83
2023/10/23 04:10:24;;;;;;;0.50;0.40;;;9.90;99.90;;;;;;5045633;28;20215;-82
2023/10/23 04:12:50;;;;;;;0.50;0.40;;;9.90;99.90;;;;;;5046086;28;20200;-82
2023/10/23 04:15:17;;;;;;;0.50;0.40;;;9.90;99.90;;;;;;5052243;28;20300;-82
2023/10/23 04:17:45;;;;;;;0.50;0.40;;;9.90;99.90;;;;;;5042405;28;20195;-83
2023/10/23 04:20:12;;;;;;;0.50;0.40;;;9.80;99.90;;;;;;5051570;28;20225;-82
2023/10/23 04:22:39;;;;;;;0.50;0.40;;;9.80;99.90;;;;;;5048118;28;20662;-84
2023/10/23 04:25:06;;;;;;;0.50;0.40;;;9.80;99.90;;;;;;5049321;28;20199;-83
2023/10/23 04:27:33;;;;;;;0.50;0.40;;;9.80;99.90;;;;;;5053980;28;20195;-83
2023/10/23 04:30:00;;;;;;;0.50;0.40;;;9.70;99.90;;;;;;5047552;28;20228;-83
2023/10/23 04:32:27;;;;;;;0.50;0.40;;;9.70;99.90;;;;;;5050377;28;20202;-84
2023/10/23 04:34:55;;;;;;;0.50;0.40;;;9.70;99.90;;;;;;5050261;28;20672;-83
2023/10/23 04:37:22;;;;;;;0.50;0.40;;;9.70;99.90;;;;;;5034796;28;20705;-84
2023/10/23 04:39:49;;;;;;;0.60;0.50;;;9.70;99.90;;;;;;5050065;28;20219;-84
2023/10/23 04:42:16;;;;;;;0.50;0.40;;;9.70;99.90;;;;;;5047491;28;20299;-84
2023/10/23 04:44:42;;;;;;;0.50;0.40;;;9.80;99.90;;;;;;5047703;28;20199;-84
2023/10/23 04:47:09;;;;;;;0.50;0.40;;;9.70;99.90;;;;;;5048530;28;20200;-84
2023/10/23 04:49:36;;;;;;;0.50;0.40;;;9.80;99.90;;;;;;5050889;28;20218;-84
2023/10/23 04:52:05;;;;;;;0.50;0.40;;;9.80;99.90;;;;;;5050057;28;20200;-83
2023/10/23 04:54:31;;;;;;;0.50;0.40;;;9.70;99.90;;;;;;5050554;28;20192;-84
2023/10/23 04:56:58;;;;;;;0.50;0.40;;;9.70;99.90;;;;;;5050395;28;20286;-83
2023/10/23 04:59:25;;;;;;;0.50;0.40;;;9.70;99.90;;;;;;5047408;28;20707;-84
2023/10/23 05:01:52;;;;;;;0.50;0.40;;;9.60;99.90;;;;;;5046848;28;20203;-83
2023/10/23 05:04:18;;;;;;;1.88;1.77;;;9.60;99.90;;;;;;5048216;28;20203;-84
2023/10/23 05:06:45;;;;;;;0.50;0.40;;;9.60;99.90;;;;;;5047335;28;20652;-84
2023/10/23 05:09:13;;;;;;;0.50;0.40;;;9.60;99.90;;;;;;5048645;28;20683;-84
2023/10/23 05:11:40;;;;;;;0.50;0.40;;;9.60;99.90;;;;;;5052023;28;20209;-84
2023/10/23 05:14:07;;;;;;;0.50;0.40;;;9.50;99.90;;;;;;5043689;28;20203;-83
2023/10/23 05:16:34;;;;;;;0.50;0.40;;;9.50;99.90;;;;;;5052785;28;20215;-85
2023/10/23 05:19:00;;;;;;;0.50;0.40;;;9.50;99.90;;;;;;5051045;28;20202;-84
2023/10/23 05:21:27;;;;;;;0.50;0.40;;;9.50;99.90;;;;;;5051308;28;20206;-83
2023/10/23 05:23:53;;;;;;;0.50;0.40;;;9.50;99.90;;;;;;5055820;28;20208;-83
2023/10/23 05:26:21;;;;;;;0.50;0.40;;;9.50;99.90;;;;;;5049654;28;20354;-84
2023/10/23 05:28:49;;;;;;;0.50;0.40;;;9.40;99.90;;;;;;5050827;28;20199;-84
2023/10/23 05:31:16;;;;;;;0.50;0.40;;;9.40;99.90;;;;;;5051225;28;20219;-84
2023/10/23 05:33:43;;;;;;;0.50;0.40;;;9.40;99.90;;;;;;5046878;28;20257;-84
2023/10/23 05:36:10;;;;;;;0.50;0.40;;;9.40;99.90;;;;;;5047935;28;20224;-84
2023/10/23 05:38:38;;;;;;;0.50;0.40;;;9.40;99.90;;;;;;5052905;28;20199;-84
2023/10/23 05:41:05;;;;;;;0.50;0.40;;;9.30;99.90;;;;;;5049135;28;20713;-84
2023/10/23 05:43:33;;;;;;;0.50;0.40;;;9.40;99.90;;;;;;5043542;28;20203;-83
2023/10/23 05:46:03;;;;;;;0.50;0.40;;;9.40;99.90;;;;;;5050858;28;20267;-84
2023/10/23 05:48:31;;;;;;;0.50;0.40;;;9.30;99.90;;;;;;5049974;28;20448;-84
2023/10/23 05:50:59;;;;;;;0.50;0.40;;;9.30;99.90;;;;;;5050989;28;20462;-84
2023/10/23 05:53:26;;;;;;;0.50;0.40;;;9.30;99.90;;;;;;5051302;28;20199;-84
2023/10/23 05:55:53;;;;;;;0.50;0.40;;;9.20;99.90;;;;;;5051742;28;20195;-84
2023/10/23 05:58:19;;;;;;;0.50;0.40;;;9.20;99.90;;;;;;5047556;28;20195;-84
2023/10/23 06:00:48;;;;;;;0.50;0.40;;;9.20;99.90;;;;;;5044916;28;20225;-84
2023/10/23 06:03:14;;;;;;;0.50;0.40;;;9.20;99.90;;;;;;5042215;28;20200;-84
2023/10/23 06:05:41;;;;;;;0.50;0.40;;;9.20;99.90;;;;;;5048903;28;20967;-84
2023/10/23 06:08:08;;;;;;;0.50;0.40;;;9.20;99.90;;;;;;5039662;28;20663;-83
2023/10/23 06:10:41;;;;;;;0.50;0.40;;;9.20;99.90;;;;;;5043959;28;20219;-84
2023/10/23 06:13:08;;;;;;;0.50;0.40;;;9.20;99.90;;;;;;5053030;28;20203;-84
2023/10/23 06:15:35;;;;;;;0.50;0.40;;;9.10;99.90;;;;;;5044806;28;20229;-84
2023/10/23 06:18:04;;;;;;;0.50;0.40;;;9.10;99.90;;;;;;5053309;28;21028;-84
2023/10/23 06:20:31;;;;;;;0.50;0.40;;;9.10;99.90;;;;;;5031647;28;20728;-85
2023/10/23 06:22:58;;;;;;;0.50;0.40;;;9.10;99.90;;;;;;5050017;28;20290;-84
2023/10/23 06:25:26;;;;;;;0.50;0.40;;;9.10;99.90;;;;;;5047927;28;21024;-83
2023/10/23 06:27:52;;;;;;;0.50;0.40;;;9.20;99.90;;;;;;5043734;28;20434;-84
2023/10/23 06:30:20;;;;;;;2.08;0.60;;;9.20;99.90;;;;;;5044329;28;20220;-84
2023/10/23 06:32:46;;;;;;;0.50;0.40;;;9.20;99.90;;;;;;5044640;28;20224;-84
2023/10/23 06:35:15;;;;;;;0.50;0.40;;;9.20;99.90;;;;;;5052088;28;20202;-83
2023/10/23 06:37:41;;;;;;;0.50;0.40;;;9.10;99.90;;;;;;5042548;28;20213;-84
2023/10/23 06:40:09;;;;;;;0.50;0.40;;;9.20;99.90;;;;;;5047391;28;20229;-82
2023/10/23 06:42:36;;;;;;;0.50;0.40;;;9.20;99.90;;;;;;5043976;28;20202;-84
2023/10/23 06:45:03;;;;;;;0.50;0.40;;;9.20;99.90;;;;;;5043703;28;20200;-84
2023/10/23 06:47:30;;;;;;;0.50;0.40;;;9.30;99.90;;;;;;5043759;28;20192;-84
2023/10/23 06:49:57;;;;;;;0.50;0.40;;;9.30;99.90;;;;;;5045410;28;20223;-82
2023/10/23 06:52:25;;;;;;;0.50;0.40;;;9.40;99.90;;;;;;5046929;28;20278;-84
2023/10/23 06:54:52;;;;;;;2.67;2.05;;;9.40;99.90;;;;;;5047891;28;20221;-83
2023/10/23 06:57:18;;;;;;;1.30;1.20;;;9.40;99.90;;;;;;5047013;28;20328;-84
2023/10/23 06:59:45;;;;;;;0.60;0.50;;;9.40;99.90;;;;;;5047443;28;20219;-82
2023/10/23 07:02:12;;;;;;;0.50;0.40;;;9.40;99.90;;;;;;5039169;28;20203;-84
2023/10/23 07:04:39;;;;;;;0.50;0.40;;;9.50;99.90;;;;;;5047205;28;20195;-84
2023/10/23 07:07:06;;;;;;;0.50;0.40;;;9.50;99.90;;;;;;5046731;28;20222;-85
2023/10/23 07:09:34;;;;;;;0.50;0.40;;;9.60;99.90;;;;;;5043998;28;20212;-85
2023/10/23 07:12:01;;;;;;;0.50;0.40;;;9.80;99.90;;;;;;5042349;28;20203;-81
2023/10/23 07:14:27;;;;;;;0.50;0.40;;;9.90;99.90;;;;;;5052029;28;20450;-83
2023/10/23 07:16:54;;;;;;;0.50;0.40;;;10.20;99.90;;;;;;5056060;28;20215;-83
2023/10/23 07:19:21;;;;;;;0.50;0.37;;;10.40;99.90;;;;;;5052623;28;20552;-83
2023/10/23 07:21:47;;;;;;;0.50;0.40;;;10.50;99.90;;;;;;5057832;28;20465;-80
2023/10/23 07:24:14;;;;;;;0.50;0.40;;;10.70;99.90;;;;;;5055020;28;20445;-83
2023/10/23 07:26:42;;;;;;;0.60;0.60;;;10.90;99.90;;;;;;5051265;28;20482;-83
2023/10/23 07:29:09;;;;;;;0.50;0.40;;;11.10;99.90;;;;;;5048399;28;20289;-84
2023/10/23 07:31:36;;;;;;;0.63;0.63;;;11.30;99.90;;;;;;5047694;28;20442;-84
2023/10/23 07:34:04;;;;;;;0.50;0.40;;;11.60;99.90;;;;;;5046724;28;20441;-84
2023/10/23 07:36:31;;;;;;;0.50;0.50;;;11.90;99.90;;;;;;5044108;28;20441;-83
2023/10/23 07:38:59;;;;;;;0.50;0.40;;;12.30;99.90;;;;;;5045493;28;20441;-82
2023/10/23 07:41:26;;;;;;;0.50;0.40;;;12.50;99.90;;;;;;5057304;28;20529;-83
2023/10/23 07:43:54;;;;;;;0.53;0.50;;;12.80;99.90;;;;;;5039238;28;20441;-83
2023/10/23 07:46:21;;;;;;;0.60;0.60;;;13.40;99.90;;;;;;5048330;28;20435;-84
2023/10/23 07:48:47;;;;;;;0.97;0.80;;;13.80;99.90;;;;;;5051325;28;20452;-84
2023/10/23 07:51:15;;;;;;;0.50;0.40;;;14.10;99.90;;;;;;5050424;28;20460;-83
2023/10/23 07:53:41;;;;;;;1.33;0.80;;;15.00;99.90;;;;;;5047578;28;20435;-84
2023/10/23 07:56:08;;;;;;;1.87;0.60;;;15.70;99.90;;;;;;5047285;28;20452;-81
2023/10/23 07:58:35;;;;;;;0.50;0.40;;;16.40;99.90;;;;;;5052486;28;20555;-83
2023/10/23 08:01:05;;;;;;;0.50;0.30;;;16.50;99.90;;;;;;5050031;28;21051;-82
2023/10/23 08:03:33;;;;;;;0.50;0.40;;;16.90;99.90;;;;;;5048069;28;20448;-84
2023/10/23 08:06:00;;;;;;;0.50;0.30;;;16.90;99.90;;;;;;5046113;28;20446;-83
2023/10/23 08:08:27;;;;;;;0.50;0.40;;;17.20;99.90;;;;;;5057687;28;20433;-83
2023/10/23 08:10:53;;;;;;;2.40;1.40;;;17.60;99.90;;;;;;5049739;28;20545;-84
2023/10/23 08:13:20;;;;;;;0.50;0.50;;;17.80;99.90;;;;;;5042170;28;20442;-83
2023/10/23 08:15:47;;;;;;;1.23;1.13;;;17.30;99.90;;;;;;5052263;28;20444;-82
2023/10/23 08:18:15;;;;;;;0.50;0.40;;;17.50;99.90;;;;;;5048183;28;20481;-83
2023/10/23 08:20:42;;;;;;;0.50;0.33;;;17.40;99.90;;;;;;5040037;28;20464;-84
2023/10/23 08:23:09;;;;;;;0.50;0.30;;;17.90;99.90;;;;;;5049580;28;20442;-83
2023/10/23 08:25:35;;;;;;;0.90;0.67;;;18.50;99.90;;;;;;5054059;28;20465;-83
2023/10/23 08:28:02;;;;;;;0.73;0.73;;;19.00;99.90;;;;;;5056145;28;20451;-83
2023/10/23 08:30:29;;;;;;;0.50;0.37;;;19.30;99.90;;;;;;5051429;28;20491;-82
2023/10/23 08:32:56;;;;;;;0.73;0.73;;;19.10;99.90;;;;;;5048321;28;20938;-83
2023/10/23 08:35:27;;;;;;;0.50;0.40;;;19.00;99.90;;;;;;5048068;28;20460;-84
2023/10/23 08:37:54;;;;;;;1.77;1.47;;;19.00;99.90;;;;;;5048303;28;20842;-82
2023/10/23 08:40:21;;;;;;;0.50;0.30;;;19.20;99.90;;;;;;5048545;28;20469;-82
2023/10/23 08:42:49;;;;;;;0.60;0.50;;;19.50;99.90;;;;;;5052113;28;20536;-83
2023/10/23 08:45:17;;;;;;;0.50;0.50;;;19.70;99.90;;;;;;5058138;28;20925;-83
2023/10/23 08:47:44;;;;;;;34.37;1.83;;;19.90;99.90;;;;;;5041561;28;20441;-82
2023/10/23 08:50:11;;;;;;;0.63;0.63;;;20.20;99.90;;;;;;5050838;28;20468;-83
2023/10/23 08:52:46;;;;;;;0.50;0.40;;;20.30;99.90;;;;;;5048866;28;21044;-83
2023/10/23 08:55:14;;;;;;;0.50;0.30;;;20.40;99.90;;;;;;5047897;28;20438;-83
2023/10/23 08:57:44;;;;;;;0.50;0.30;;;20.40;99.90;;;;;;5051020;28;20483;-83
2023/10/23 09:00:12;;;;;;;0.50;0.30;;;20.10;99.90;;;;;;5050081;28;20462;-84
2023/10/23 09:02:38;;;;;;;1.20;1.17;;;20.30;99.90;;;;;;5047747;28;20528;-79
2023/10/23 09:05:06;;;;;;;0.50;0.40;;;20.10;99.90;;;;;;5049940;28;20446;-83
2023/10/23 09:07:33;;;;;;;0.50;0.40;;;19.60;99.90;;;;;;5050098;28;20443;-82
2023/10/23 09:10:03;;;;;;;0.50;0.40;;;19.10;99.90;;;;;;5055840;28;20466;-81
2023/10/23 09:12:31;;;;;;;0.50;0.33;;;18.70;99.90;;;;;;5051665;28;20439;-82
2023/10/23 09:14:59;;;;;;;1.33;0.80;;;18.30;99.90;;;;;;5053282;28;20434;-83
2023/10/23 09:17:27;;;;;;;0.50;0.30;;;17.80;99.90;;;;;;5050550;28;20484;-82
2023/10/23 09:19:54;;;;;;;0.50;0.40;;;17.50;99.90;;;;;;5044838;28;20461;-82
2023/10/23 09:22:21;;;;;;;0.50;0.30;;;17.20;99.90;;;;;;5044091;28;20523;-81
2023/10/23 09:24:48;;;;;;;0.50;0.40;;;17.10;99.90;;;;;;5044300;28;20509;-83
2023/10/23 09:27:17;;;;;;;0.50;0.30;;;17.00;99.90;;;;;;5044897;28;20482;-82
2023/10/23 09:29:44;;;;;;;0.50;0.30;;;16.90;99.90;;;;;;5050149;28;20465;-82
2023/10/23 09:32:11;;;;;;;0.50;0.40;;;16.80;99.90;;;;;;5051649;28;20439;-83
2023/10/23 09:34:42;;;;;;;0.50;0.40;;;16.50;99.90;;;;;;5050383;28;20456;-84
2023/10/23 09:37:09;;;;;;;0.90;0.50;;;16.30;99.90;;;;;;5052894;28;20510;-83
2023/10/23 09:39:38;;;;;;;0.50;0.40;;;16.20;99.90;;;;;;5053545;28;20526;-83
2023/10/23 09:42:08;;;;;;;2.80;2.63;;;16.20;99.90;;;;;;5052502;28;20434;-83
2023/10/23 09:44:37;;;;;;;0.50;0.50;;;16.20;99.90;;;;;;5050713;28;20441;-82
2023/10/23 09:47:06;;;;;;;0.50;0.33;;;16.20;99.90;;;;;;5041799;28;20521;-84
2023/10/23 09:49:34;;;;;;;0.50;0.40;;;16.20;99.90;;;;;;5050663;28;20463;-81
2023/10/23 09:52:04;;;;;;;0.50;0.40;;;16.10;99.90;;;;;;5054126;28;20529;-82
2023/10/23 09:54:32;;;;;;;0.50;0.33;;;16.20;99.90;;;;;;5051063;28;20445;-80
2023/10/23 09:57:04;;;;;;;0.50;0.30;;;16.20;99.90;;;;;;5039207;28;20442;-83
2023/10/23 09:59:38;;;;;;;0.50;0.33;;;16.30;99.90;;;;;;5046950;28;20524;-83
2023/10/23 10:02:06;;;;;;;0.50;0.30;;;16.30;99.90;;;;;;5043912;28;20790;-83
2023/10/23 10:04:37;;;;;;;0.50;0.30;;;16.50;99.90;;;;;;5048857;28;20442;-84
2023/10/23 10:07:09;;;;;;;1.93;0.73;;;16.70;99.90;;;;;;5046224;28;20431;-83
2023/10/23 10:09:37;;;;;;;0.50;0.40;;;16.70;99.90;;;;;;5048268;28;20461;-82
2023/10/23 10:12:05;;;;;;;0.50;0.30;;;16.70;99.90;;;;;;5045959;28;20444;-80
2023/10/23 10:14:32;;;;;;;1.27;1.17;;;16.80;99.90;;;;;;5049103;28;20449;-83
2023/10/23 10:17:01;;;;;;;0.50;0.30;;;16.30;99.90;;;;;;5049205;28;20514;-81
2023/10/23 10:19:28;;;;;;;0.50;0.40;;;16.20;99.90;;;;;;5054599;28;21067;-83
2023/10/23 10:22:04;;;;;;;0.50;0.37;;;16.20;99.90;;;;;;5048250;28;20441;-83
2023/10/23 10:24:33;;;;;;;0.50;0.30;;;16.30;99.90;;;;;;5040827;28;20450;-83
2023/10/23 10:27:03;;;;;;;0.50;0.30;;;16.40;99.90;;;;;;5050619;28;20437;-83
2023/10/23 10:29:31;;;;;;;0.50;0.40;;;16.70;99.90;;;;;;5052087;28;20545;-82
2023/10/23 10:32:08;;;;;;;0.57;0.50;;;16.90;99.90;;;;;;5039422;28;20449;-83
2023/10/23 10:34:36;;;;;;;0.50;0.40;;;17.10;99.90;;;;;;5047386;28;20447;-83
2023/10/23 10:37:05;;;;;;;0.50;0.30;;;17.20;99.90;;;;;;5052187;28;20449;-83
2023/10/23 10:40:04;;;;;;;0.50;0.40;;;17.30;99.90;;;;;;5050806;28;20842;-82
2023/10/23 10:42:35;;;;;;;0.50;0.30;;;17.40;99.90;;;;;;5050651;28;20552;-82
2023/10/23 10:45:13;;;;;;;1.90;1.37;;;17.50;99.90;;;;;;5058478;28;20515;-83
2023/10/23 10:47:45;;;;;;;0.50;0.40;;;17.40;99.90;;;;;;5042932;28;20949;-82
2023/10/23 10:50:13;;;;;;;0.50;0.40;;;17.00;99.90;;;;;;5051346;28;20541;-82
2023/10/23 10:52:41;;;;;;;0.50;0.33;;;16.60;99.90;;;;;;5042942;28;20465;-83
2023/10/23 10:55:10;;;;;;;2.70;1.37;;;16.70;99.90;;;;;;5052323;28;20545;-79
2023/10/23 10:57:40;;;;;;;0.50;0.30;;;16.80;99.90;;;;;;5053663;28;20453;-80
2023/10/23 11:00:09;;;;;;;1.00;0.63;;;16.70;99.90;;;;;;5049216;28;20459;-81
2023/10/23 11:02:36;;;;;;;0.50;0.40;;;16.80;99.90;;;;;;5047751;28;20446;-83
2023/10/23 11:05:09;;;;;;;0.50;0.40;;;16.60;99.90;;;;;;5048492;28;20438;-82
2023/10/23 11:07:37;;;;;;;0.50;0.40;;;16.80;99.90;;;;;;5051039;28;20465;-82
2023/10/23 11:10:05;;;;;;;0.50;0.40;;;17.10;99.90;;;;;;5049845;28;20524;-82
2023/10/23 11:12:32;;;;;;;0.50;0.40;;;17.40;99.90;;;;;;5051119;28;20510;-81
2023/10/23 11:14:59;;;;;;;0.50;0.40;;;17.50;99.90;;;;;;5055695;28;20445;-80
2023/10/23 11:17:26;;;;;;;0.50;0.40;;;17.60;99.90;;;;;;5056336;28;20514;-81
2023/10/23 11:19:53;;;;;;;0.50;0.30;;;17.60;99.90;;;;;;5051012;28;20557;-82
2023/10/23 11:22:22;;;;;;;0.50;0.40;;;17.70;99.90;;;;;;5047425;28;20438;-82
2023/10/23 11:24:49;;;;;;;0.50;0.30;;;17.80;99.90;;;;;;5054183;28;20442;-83
2023/10/23 11:27:15;;;;;;;0.70;0.60;;;17.90;99.90;;;;;;5054563;28;20451;-81
2023/10/23 11:29:44;;;;;;;0.50;0.47;;;18.00;99.90;;;;;;5060625;28;20468;-82
2023/10/23 11:32:12;;;;;;;0.50;0.30;;;18.10;99.90;;;;;;5042111;28;20427;-82
2023/10/23 11:34:39;;;;;;;1.33;0.90;;;18.10;99.90;;;;;;5050482;28;20445;-82
2023/10/23 11:37:07;;;;;;;0.50;0.30;;;18.10;99.90;;;;;;5050657;28;20442;-81
2023/10/23 11:39:36;;;;;;;0.50;0.30;;;18.00;99.90;;;;;;5049920;28;20497;-81
2023/10/23 11:42:05;;;;;;;0.50;0.40;;;18.00;99.90;;;;;;5046175;28;20537;-80
2023/10/23 11:44:34;;;;;;;0.70;0.50;;;17.90;99.90;;;;;;5047583;28;20509;-82
2023/10/23 11:47:04;;;;;;;0.50;0.33;;;17.80;99.90;;;;;;5044322;28;20452;-82
2023/10/23 11:49:31;;;;;;;0.50;0.30;;;17.50;99.90;;;;;;5052005;28;20474;-81
2023/10/23 11:52:00;;;;;;;0.60;0.47;;;17.30;99.90;;;;;;5046690;28;20444;-81
2023/10/23 11:54:28;;;;;;;0.70;0.70;;;17.10;99.90;;;;;;5041191;28;21194;-81
2023/10/23 11:56:58;;;;;;;0.50;0.50;;;17.00;99.90;;;;;;5058930;28;20434;-82
2023/10/23 11:59:25;;;;;;;0.50;0.40;;;17.00;99.90;;;;;;5050769;28;20470;-82
2023/10/23 12:01:52;;;;;;;0.50;0.40;;;16.90;99.90;;;;;;5042671;28;20450;-82
2023/10/23 12:04:19;;;;;;;0.50;0.40;;;16.80;99.90;;;;;;5059618;28;20453;-83
2023/10/23 12:06:46;;;;;;;0.50;0.33;;;16.90;99.90;;;;;;5050072;28;20441;-82
2023/10/23 12:09:13;;;;;;;0.50;0.30;;;16.70;99.90;;;;;;5039152;28;20436;-83
2023/10/23 12:11:41;;;;;;;0.50;0.40;;;16.60;99.90;;;;;;5048483;28;20447;-83
2023/10/23 12:14:09;;;;;;;0.50;0.30;;;16.60;99.90;;;;;;5049136;28;20856;-80
2023/10/23 12:16:36;;;;;;;0.50;0.30;;;16.50;99.90;;;;;;5048481;28;20448;-83
2023/10/23 12:19:03;;;;;;;0.50;0.40;;;16.40;99.90;;;;;;5040514;28;20479;-82
2023/10/23 12:21:30;;;;;;;0.50;0.30;;;16.40;99.90;;;;;;5057927;28;20452;-82
2023/10/23 12:23:57;;;;;;;0.50;0.40;;;16.30;99.90;;;;;;5043777;28;20456;-82
2023/10/23 12:26:25;;;;;;;0.50;0.40;;;16.20;99.90;;;;;;5043882;28;20438;-80
2023/10/23 12:28:52;;;;;;;0.50;0.40;;;16.10;99.90;;;;;;5051594;28;20437;-81
2023/10/23 12:31:20;;;;;;;0.50;0.37;;;16.00;99.90;;;;;;5050967;28;20469;-82
2023/10/23 12:33:48;;;;;;;0.50;0.43;;;16.00;99.90;;;;;;5053700;28;20517;-82
2023/10/23 12:36:15;;;;;;;0.50;0.40;;;15.90;99.90;;;;;;5049185;28;20442;-82
2023/10/23 12:38:42;;;;;;;0.50;0.40;;;16.00;99.90;;;;;;5053131;28;20542;-81
2023/10/23 12:41:09;;;;;;;0.50;0.40;;;16.00;99.90;;;;;;5059545;28;20556;-82
2023/10/23 12:43:36;;;;;;;0.50;0.40;;;16.00;99.90;;;;;;5051721;28;20477;-82
2023/10/23 12:46:02;;;;;;;0.50;0.40;;;16.00;99.90;;;;;;5055150;28;20441;-81
2023/10/23 12:48:30;;;;;;;0.50;0.37;;;16.00;99.90;;;;;;5055863;28;20534;-81
2023/10/23 12:50:57;;;;;;;0.50;0.37;;;15.90;99.90;;;;;;5053613;28;20561;-81
2023/10/23 12:53:24;;;;;;;0.50;0.40;;;15.90;99.90;;;;;;5056081;28;20513;-80